Puerto Banus, Marbella

>

This is an optional block (switch it off / on) in the settings - file ($SITE['banners'] = false;)

You can display ads, any other important text or photo’s using text / html or PHP code.

You can place one or more at the top and or bottom and it can all be different for content / size .



Meteosat more information blitzortung!


Radar lluvias  rain snow radar


Visita nuestra red de sitios de meteo:

Documentation for the template used

MeteoibericaRed estaciones Meteorologicas

MeteoclimaticRed estaciones Meteorologicas



Sin Advertencias climatologicas .En este momento tenemos Nivel Verde.    No hay Alarmas

Pagina Historial Weather Underground texto

Diario Resumen Diciembre 5, 2017 Unidades:  Métrico    impérial   Tanto
« Anterior Dia
Siguiente Dia »
Diario Semana Mensual Anual Personalizada
  Maxima: Minima: Media:
Temperatura: -17.8 °C -11.6 °C -10.3 °C
Punto de rocío: -17.8 °C -14.1 °C -13.1 °C
Humedad: Humidity % 67 % 71 %
Velocidad del Viento: 0 km/h 9 km/h 34 km/h
Ráfagas de viento: 0 km/h - -
Viento:- - ENE
Pression baro: 0 hPa 34957.1 hPa -
Précipitaciones: 0 mm    
Historical Graphs
 
 
Datos de tabla para Diciembre 5, 2017
Tiempo Temperatura Punto de rocío Pression baro Viento Velocidad del Viento Ráfagas de viento Humedad Las precipitaciones Rate ( Hora )
-17.8 °C -17.8 °C 0 hPa Calm     Humidity % 0 mm
00:04 -10.2 °C -13.1 °C 34990.9 hPa ENE 29.8 km/h 29.8 km/h 71 % 0 mm
00:09 -10.2 °C -12.9 °C 34990.9 hPa ENE 29.8 km/h 29.8 km/h 72 % 0 mm
00:14 -10.2 °C -12.9 °C 34990.9 hPa NE 26.9 km/h 26.9 km/h 72 % 0 mm
00:19 -10.2 °C -12.9 °C 34990.9 hPa ENE 29.8 km/h 29.8 km/h 72 % 0 mm
00:24 -10.1 °C -13 °C 34990.9 hPa ENE 35.7 km/h 35.7 km/h 71 % 0 mm
00:29 -10.1 °C -12.9 °C 34990.9 hPa NE 29.8 km/h 29.8 km/h 72 % 0 mm
00:34 -10.2 °C -13.1 °C 34990.9 hPa ENE 32.8 km/h 32.8 km/h 71 % 0 mm
00:39 -10.2 °C -12.8 °C 34990.9 hPa ENE 35.7 km/h 35.7 km/h 73 % 0 mm
00:44 -10.2 °C -12.9 °C 34990.9 hPa ENE 32.8 km/h 32.8 km/h 72 % 0 mm
00:49 -10.2 °C -12.9 °C 34990.9 hPa ENE 32.8 km/h 32.8 km/h 72 % 0 mm
00:54 -10.2 °C -12.8 °C 34990.9 hPa ENE 29.8 km/h 29.8 km/h 73 % 0 mm
00:59 -10.2 °C -12.8 °C 34980.8 hPa ENE 31.1 km/h 31.1 km/h 73 % 0 mm
01:04 -10.2 °C -12.9 °C 34980.8 hPa ENE 31.1 km/h 31.1 km/h 73 % 0 mm
01:09 -10.2 °C -12.7 °C 34980.8 hPa ENE 36.2 km/h 36.2 km/h 74 % 0 mm
01:14 -10.2 °C -12.8 °C 34980.8 hPa NE 29.8 km/h 29.8 km/h 74 % 0 mm
01:19 -10.2 °C -12.8 °C 34980.8 hPa ENE 31.1 km/h 31.1 km/h 74 % 0 mm
01:24 -10.2 °C -12.7 °C 34980.8 hPa ENE 36.2 km/h 36.2 km/h 75 % 0 mm
01:29 -10.2 °C -12.8 °C 34980.8 hPa NE 32.8 km/h 32.8 km/h 74 % 0 mm
01:34 -10.2 °C -12.8 °C 34980.8 hPa ENE 35.7 km/h 35.7 km/h 74 % 0 mm
01:39 -10.2 °C -12.8 °C 34980.8 hPa ENE 38.8 km/h 38.8 km/h 74 % 0 mm
01:44 -10.2 °C -12.7 °C 34980.8 hPa ENE 32.8 km/h 32.8 km/h 74 % 0 mm
01:49 -10.2 °C -12.8 °C 34980.8 hPa ENE 31.1 km/h 31.1 km/h 74 % 0 mm
01:54 -10.2 °C -12.8 °C 34980.8 hPa ENE 38.8 km/h 38.8 km/h 74 % 0 mm
01:59 -10.2 °C -12.8 °C 34967.2 hPa NE 35.7 km/h 35.7 km/h 74 % 0 mm
02:04 -10.2 °C -12.8 °C 34967.2 hPa ENE 38.8 km/h 38.8 km/h 74 % 0 mm
02:09 -10.2 °C -12.8 °C 34967.2 hPa NE 41.7 km/h 41.7 km/h 74 % 0 mm
02:14 -10.2 °C -12.9 °C 34967.2 hPa ENE 41.7 km/h 41.7 km/h 73 % 0 mm
02:19 -10.2 °C -12.9 °C 34967.2 hPa NE 41.7 km/h 41.7 km/h 73 % 0 mm
02:24 -10.3 °C -12.9 °C 34967.2 hPa ENE 38.8 km/h 38.8 km/h 73 % 0 mm
02:29 -10.3 °C -12.8 °C 34967.2 hPa ENE 33.6 km/h 33.6 km/h 74 % 0 mm
02:34 -10.3 °C -12.9 °C 34980.8 hPa ENE 33.6 km/h 33.6 km/h 73 % 0 mm
02:39 -10.3 °C -12.9 °C 34967.2 hPa NE 32.8 km/h 32.8 km/h 73 % 0 mm
02:44 -10.3 °C -12.9 °C 34967.2 hPa ENE 31.1 km/h 31.1 km/h 73 % 0 mm
02:49 -10.3 °C -12.9 °C 34980.8 hPa ENE 33.6 km/h 33.6 km/h 73 % 0 mm
02:54 -10.3 °C -12.9 °C 34980.8 hPa ENE 33.6 km/h 33.6 km/h 73 % 0 mm
02:59 -10.3 °C -12.9 °C 34980.8 hPa ENE 31.1 km/h 31.1 km/h 73 % 0 mm
03:04 -10.3 °C -13 °C 34980.8 hPa NE 32.8 km/h 32.8 km/h 72 % 0 mm
03:09 -10.3 °C -13.2 °C 34980.8 hPa ENE 38.8 km/h 38.8 km/h 71 % 0 mm
03:14 -10.3 °C -13.2 °C 34980.8 hPa NE 32.8 km/h 32.8 km/h 71 % 0 mm
03:19 -10.4 °C -13.2 °C 34967.2 hPa NE 38.8 km/h 38.8 km/h 71 % 0 mm
03:24 -10.3 °C -13.2 °C 34967.2 hPa NE 29.8 km/h 29.8 km/h 71 % 0 mm
03:29 -10.4 °C -13.2 °C 34967.2 hPa NE 38.8 km/h 38.8 km/h 71 % 0 mm
03:34 -10.4 °C -13.4 °C 34967.2 hPa NE 32.8 km/h 32.8 km/h 70 % 0 mm
03:39 -10.3 °C -13.2 °C 34967.2 hPa ENE 29.8 km/h 29.8 km/h 71 % 0 mm
03:44 -10.3 °C -13.2 °C 34967.2 hPa NE 35.7 km/h 35.7 km/h 71 % 0 mm
03:49 -10.3 °C -13.1 °C 34980.8 hPa NE 35.7 km/h 35.7 km/h 72 % 0 mm
03:54 -10.4 °C -13.2 °C 34967.2 hPa ENE 32.8 km/h 32.8 km/h 71 % 0 mm
03:59 -10.4 °C -13.1 °C 34980.8 hPa NE 29.8 km/h 29.8 km/h 72 % 0 mm
04:04 -10.4 °C -13.1 °C 34980.8 hPa NE 29.8 km/h 29.8 km/h 72 % 0 mm
04:09 -10.3 °C -12.9 °C 34980.8 hPa NE 35.7 km/h 35.7 km/h 73 % 0 mm
04:14 -10.3 °C -12.9 °C 34980.8 hPa NE 32.8 km/h 32.8 km/h 73 % 0 mm
04:19 -10.3 °C -12.9 °C 34967.2 hPa NE 29.8 km/h 29.8 km/h 73 % 0 mm
04:20 -10.4 °C -13 °C 34967.2 hPa ENE 41.7 km/h 41.7 km/h 73 % 0 mm
04:25 -10.3 °C -12.9 °C 34967.2 hPa NE 32.8 km/h 32.8 km/h 73 % 0 mm
04:30 -10.4 °C -13 °C 34967.2 hPa ENE 38.8 km/h 38.8 km/h 73 % 0 mm
04:31 -10.4 °C -13 °C 34967.2 hPa ENE 38.8 km/h 38.8 km/h 73 % 0 mm
04:36 -10.4 °C -13 °C 34967.2 hPa ENE 31.1 km/h 31.1 km/h 73 % 0 mm
04:41 -10.4 °C -13 °C 34967.2 hPa ENE 38.8 km/h 38.8 km/h 73 % 0 mm
04:46 -10.4 °C -13 °C 34967.2 hPa NE 41.7 km/h 41.7 km/h 73 % 0 mm
04:51 -10.4 °C -13 °C 34967.2 hPa NE 38.8 km/h 38.8 km/h 73 % 0 mm
04:56 -10.3 °C -12.9 °C 34967.2 hPa NE 47.6 km/h 47.6 km/h 73 % 0 mm
05:01 -10.3 °C -12.9 °C 34967.2 hPa ENE 35.7 km/h 35.7 km/h 73 % 0 mm
05:06 -10.4 °C -13 °C 34967.2 hPa ENE 36.2 km/h 36.2 km/h 73 % 0 mm
05:11 -10.3 °C -12.9 °C 34967.2 hPa ENE 33.6 km/h 33.6 km/h 73 % 0 mm
05:16 -10.3 °C -12.9 °C 34967.2 hPa NE 38.8 km/h 38.8 km/h 73 % 0 mm
05:21 -10.3 °C -12.9 °C 34967.2 hPa ENE 41.7 km/h 41.7 km/h 73 % 0 mm
05:26 -10.3 °C -13 °C 34967.2 hPa ENE 38.8 km/h 38.8 km/h 72 % 0 mm
05:31 -10.3 °C -12.9 °C 34967.2 hPa ENE 38.8 km/h 38.8 km/h 73 % 0 mm
05:36 -10.3 °C -12.9 °C 34967.2 hPa ENE 36.2 km/h 36.2 km/h 73 % 0 mm
05:41 -10.3 °C -12.9 °C 34957.1 hPa ENE 41.4 km/h 41.4 km/h 73 % 0 mm
05:46 -10.3 °C -12.9 °C 34957.1 hPa ENE 33.6 km/h 33.6 km/h 73 % 0 mm
05:51 -10.4 °C -13 °C 34967.2 hPa ENE 33.6 km/h 33.6 km/h 73 % 0 mm
05:56 -10.4 °C -13 °C 34967.2 hPa ENE 31.1 km/h 31.1 km/h 73 % 0 mm
06:01 -10.4 °C -13 °C 34967.2 hPa ENE 33.6 km/h 33.6 km/h 73 % 0 mm
06:06 -10.4 °C -13 °C 34967.2 hPa ENE 32.8 km/h 32.8 km/h 73 % 0 mm
06:11 -10.4 °C -13 °C 34967.2 hPa NE 35.7 km/h 35.7 km/h 73 % 0 mm
06:16 -10.4 °C -13 °C 34967.2 hPa ENE 41.7 km/h 41.7 km/h 73 % 0 mm
06:21 -10.4 °C -13 °C 34967.2 hPa NE 38.8 km/h 38.8 km/h 73 % 0 mm
06:26 -10.4 °C -13.1 °C 34967.2 hPa NE 32.8 km/h 32.8 km/h 73 % 0 mm
06:31 -10.4 °C -13.1 °C 34967.2 hPa ENE 32.8 km/h 32.8 km/h 73 % 0 mm
06:36 -10.4 °C -13.1 °C 34967.2 hPa NE 38.8 km/h 38.8 km/h 73 % 0 mm
06:41 -10.4 °C -13 °C 34967.2 hPa ENE 32.8 km/h 32.8 km/h 73 % 0 mm
06:46 -10.4 °C -13.2 °C 34967.2 hPa ENE 35.7 km/h 35.7 km/h 72 % 0 mm
06:51 -10.4 °C -13.1 °C 34967.2 hPa ENE 35.7 km/h 35.7 km/h 72 % 0 mm
06:56 -10.3 °C -13.1 °C 34967.2 hPa NE 35.7 km/h 35.7 km/h 72 % 0 mm
07:01 -10.3 °C -13.1 °C 34980.8 hPa ENE 29.8 km/h 29.8 km/h 72 % 0 mm
07:06 -10.4 °C -13.1 °C 34980.8 hPa NE 36.2 km/h 36.2 km/h 72 % 0 mm
07:11 -10.4 °C -13.1 °C 34980.8 hPa NE 26.9 km/h 26.9 km/h 72 % 0 mm
07:16 -10.4 °C -13.2 °C 34980.8 hPa ENE 29.8 km/h 29.8 km/h 71 % 0 mm
07:21 -10.3 °C -13.2 °C 34980.8 hPa ENE 31.1 km/h 31.1 km/h 71 % 0 mm
07:26 -10.3 °C -13.2 °C 34980.8 hPa ENE 38.8 km/h 38.8 km/h 71 % 0 mm
07:31 -10.2 °C -13.2 °C 34980.8 hPa ENE 32.8 km/h 32.8 km/h 70 % 0 mm
07:36 -10.2 °C -13.2 °C 34980.8 hPa ENE 41.7 km/h 41.7 km/h 70 % 0 mm
07:41 -10.2 °C -13.2 °C 34980.8 hPa ENE 44.7 km/h 44.7 km/h 70 % 0 mm
07:46 -10.2 °C -13.2 °C 34980.8 hPa NE 35.7 km/h 35.7 km/h 70 % 0 mm
07:51 -10.2 °C -13.3 °C 34980.8 hPa ENE 38.8 km/h 38.8 km/h 69 % 0 mm
07:56 -10.2 °C -13.3 °C 34980.8 hPa NE 32.8 km/h 32.8 km/h 69 % 0 mm
08:01 -10.2 °C -13.1 °C 34980.8 hPa NE 35.7 km/h 35.7 km/h 71 % 0 mm
08:06 -10.2 °C -13.1 °C 34990.9 hPa ENE 35.7 km/h 35.7 km/h 71 % 0 mm
08:11 -10.2 °C -13.1 °C 34990.9 hPa ENE 38.8 km/h 38.8 km/h 71 % 0 mm
08:16 -10.2 °C -13.1 °C 34990.9 hPa ENE 36.2 km/h 36.2 km/h 71 % 0 mm
08:21 -10.2 °C -13.1 °C 34990.9 hPa ENE 32.8 km/h 32.8 km/h 71 % 0 mm
08:26 -10.2 °C -13.1 °C 34990.9 hPa ENE 31.1 km/h 31.1 km/h 71 % 0 mm
08:31 -10.2 °C -13.2 °C 34990.9 hPa East 29.8 km/h 29.8 km/h 70 % 0 mm
08:36 -10.2 °C -13.1 °C 34990.9 hPa ENE 32.8 km/h 32.8 km/h 71 % 0 mm
08:41 -10.2 °C -13.1 °C 35001.1 hPa ENE 36.2 km/h 36.2 km/h 71 % 0 mm
08:46 -10.2 °C -13 °C 35001.1 hPa NE 36.2 km/h 36.2 km/h 71 % 0 mm
08:51 -10.2 °C -13.2 °C 35001.1 hPa ENE 35.7 km/h 35.7 km/h 70 % 0 mm
08:56 -10.2 °C -13.1 °C 35001.1 hPa ENE 32.8 km/h 32.8 km/h 71 % 0 mm
09:01 -10.2 °C -13.1 °C 35001.1 hPa ENE 29.8 km/h 29.8 km/h 71 % 0 mm
09:07 -10.2 °C -13.2 °C 35001.1 hPa ENE 29.8 km/h 29.8 km/h 70 % 0 mm
09:12 -10.2 °C -13 °C 35001.1 hPa ENE 35.7 km/h 35.7 km/h 71 % 0 mm
09:17 -10.2 °C -13.2 °C 35001.1 hPa East 44.7 km/h 44.7 km/h 70 % 0 mm
09:22 -10.2 °C -13.2 °C 35001.1 hPa NE 41.7 km/h 41.7 km/h 70 % 0 mm
09:27 -10.1 °C -13.1 °C 35001.1 hPa ENE 35.7 km/h 35.7 km/h 70 % 0 mm
09:32 -10.1 °C -13.1 °C 35001.1 hPa ENE 38.8 km/h 38.8 km/h 70 % 0 mm
09:37 -10.1 °C -13.2 °C 35001.1 hPa ENE 35.7 km/h 35.7 km/h 69 % 0 mm
09:42 -10.1 °C -13.2 °C 35001.1 hPa ENE 47.6 km/h 47.6 km/h 69 % 0 mm
09:47 -10.1 °C -13.2 °C 35001.1 hPa ENE 41.7 km/h 41.7 km/h 69 % 0 mm
09:52 -10.1 °C -13.2 °C 35014.6 hPa East 41.7 km/h 41.7 km/h 69 % 0 mm
09:57 -10.1 °C -13.2 °C 35014.6 hPa ENE 41.7 km/h 41.7 km/h 69 % 0 mm
10:02 -10.1 °C -13.1 °C 35014.6 hPa ENE 35.7 km/h 35.7 km/h 70 % 0 mm
10:07 -10.1 °C -13.2 °C 35014.6 hPa ENE 41.7 km/h 41.7 km/h 69 % 0 mm
10:12 -10 °C -12.9 °C 35014.6 hPa ENE 41.7 km/h 41.7 km/h 71 % 0 mm
10:17 -10 °C -13 °C 35014.6 hPa ENE 38.8 km/h 38.8 km/h 70 % 0 mm
10:22 -10 °C -12.9 °C 35014.6 hPa East 41.7 km/h 41.7 km/h 71 % 0 mm
10:27 -9.9 °C -12.9 °C 35024.8 hPa ENE 44.7 km/h 44.7 km/h 70 % 0 mm
10:32 -9.9 °C -12.9 °C 35024.8 hPa East 41.7 km/h 41.7 km/h 70 % 0 mm
10:37 -10 °C -13.1 °C 35024.8 hPa ENE 47.6 km/h 47.6 km/h 69 % 0 mm
10:42 -9.9 °C -12.8 °C 35024.8 hPa ENE 38.8 km/h 38.8 km/h 71 % 0 mm
10:47 -10 °C -13.1 °C 35024.8 hPa ENE 35.7 km/h 35.7 km/h 69 % 0 mm
10:52 -9.9 °C -12.9 °C 35038.3 hPa ENE 35.7 km/h 35.7 km/h 70 % 0 mm
10:57 -9.9 °C -12.7 °C 35038.3 hPa East 44.7 km/h 44.7 km/h 72 % 0 mm
11:02 -9.9 °C -12.8 °C 35038.3 hPa ENE 41.4 km/h 41.4 km/h 71 % 0 mm
11:07 -9.9 °C -12.9 °C 35038.3 hPa East 41.7 km/h 41.7 km/h 70 % 0 mm
11:12 -9.9 °C -12.8 °C 35038.3 hPa ENE 32.8 km/h 32.8 km/h 71 % 0 mm
11:17 -9.9 °C -12.7 °C 35038.3 hPa East 38.8 km/h 38.8 km/h 72 % 0 mm
11:22 -9.9 °C -12.8 °C 35038.3 hPa ENE 35.7 km/h 35.7 km/h 71 % 0 mm
11:27 -9.9 °C -12.9 °C 35038.3 hPa East 44.7 km/h 44.7 km/h 70 % 0 mm
11:28 -9.9 °C -12.9 °C 35024.8 hPa East 44.7 km/h 44.7 km/h 70 % 0 mm
11:33 -9.9 °C -12.8 °C 35024.8 hPa East 41.7 km/h 41.7 km/h 71 % 0 mm
11:38 -9.9 °C -12.8 °C 35024.8 hPa East 35.7 km/h 35.7 km/h 71 % 0 mm
11:43 -9.9 °C -12.9 °C 35024.8 hPa East 44.7 km/h 44.7 km/h 70 % 0 mm
11:48 -9.9 °C -12.7 °C 35024.8 hPa ENE 35.7 km/h 35.7 km/h 71 % 0 mm
11:53 -9.9 °C -13 °C 35024.8 hPa East 50.7 km/h 50.7 km/h 69 % 0 mm
11:58 -9.9 °C -13 °C 35024.8 hPa ENE 33.6 km/h 35.7 km/h 69 % 0 mm
12:03 -9.9 °C -12.9 °C 35024.8 hPa East 38.8 km/h 38.8 km/h 70 % 0 mm
12:08 -9.8 °C -12.8 °C 35024.8 hPa ENE 32.8 km/h 32.8 km/h 70 % 0 mm
12:13 -9.8 °C -12.9 °C 35024.8 hPa East 49.2 km/h 49.2 km/h 69 % 0 mm
12:18 -9.8 °C -12.8 °C 35024.8 hPa East 44.7 km/h 44.7 km/h 70 % 0 mm
12:23 -9.8 °C -12.7 °C 35024.8 hPa East 38.8 km/h 38.8 km/h 71 % 0 mm
12:28 -9.8 °C -12.8 °C 35014.6 hPa East 38.8 km/h 38.8 km/h 70 % 0 mm
12:33 -9.8 °C -12.8 °C 35014.6 hPa East 32.8 km/h 32.8 km/h 70 % 0 mm
12:38 -9.8 °C -12.7 °C 35014.6 hPa East 36.2 km/h 36.2 km/h 70 % 0 mm
12:43 -9.7 °C -12.7 °C 35014.6 hPa East 44.7 km/h 44.7 km/h 70 % 0 mm
12:53 -9.7 °C -12.8 °C 35001.1 hPa East 44.7 km/h 44.7 km/h 69 % 0 mm
12:58 -9.8 °C -13.1 °C 35001.1 hPa East 41.7 km/h 41.7 km/h 67 % 0 mm
13:08 -9.8 °C -12.9 °C 35001.1 hPa ESE 41.7 km/h 41.7 km/h 69 % 0 mm
13:13 -9.7 °C -12.8 °C 35001.1 hPa East 47.6 km/h 47.6 km/h 69 % 0 mm
13:18 -9.7 °C -12.8 °C 35001.1 hPa ESE 41.7 km/h 41.7 km/h 69 % 0 mm
13:23 -9.7 °C -12.7 °C 34990.9 hPa ESE 36.2 km/h 36.2 km/h 70 % 0 mm
13:28 -9.7 °C -12.7 °C 34990.9 hPa ESE 36.2 km/h 36.2 km/h 70 % 0 mm
13:33 -9.7 °C -12.8 °C 34990.9 hPa ESE 38.8 km/h 38.8 km/h 69 % 0 mm
13:38 -9.7 °C -12.7 °C 34990.9 hPa ESE 41.7 km/h 41.7 km/h 70 % 0 mm
13:43 -9.6 °C -12.6 °C 34990.9 hPa East 38.8 km/h 38.8 km/h 71 % 0 mm
13:48 -9.6 °C -12.6 °C 34990.9 hPa ESE 38.8 km/h 38.8 km/h 71 % 0 mm
13:53 -9.7 °C -12.6 °C 34990.9 hPa ESE 44.7 km/h 44.7 km/h 71 % 0 mm
13:58 -9.7 °C -12.7 °C 34990.9 hPa ESE 41.7 km/h 41.7 km/h 70 % 0 mm
14:03 -9.7 °C -12.6 °C 34980.8 hPa ESE 44.7 km/h 44.7 km/h 71 % 0 mm
14:08 -9.7 °C -12.7 °C 34980.8 hPa ESE 44.7 km/h 44.7 km/h 70 % 0 mm
14:13 -9.7 °C -12.4 °C 34980.8 hPa ESE 44.7 km/h 44.7 km/h 72 % 0 mm
14:18 -9.7 °C -12.6 °C 34980.8 hPa ESE 44.7 km/h 44.7 km/h 71 % 0 mm
14:23 -9.7 °C -12.7 °C 34980.8 hPa ESE 50.7 km/h 50.7 km/h 70 % 0 mm
14:28 -9.7 °C -12.6 °C 34980.8 hPa ESE 44.7 km/h 44.7 km/h 71 % 0 mm
14:33 -9.7 °C -12.6 °C 34980.8 hPa ESE 44.7 km/h 44.7 km/h 71 % 0 mm
14:38 -9.6 °C -12.4 °C 34980.8 hPa ESE 38.8 km/h 38.8 km/h 72 % 0 mm
14:40 -9.7 °C -12.7 °C 34967.2 hPa East 41.7 km/h 41.7 km/h 70 % 0 mm
14:45 -9.7 °C -13 °C 34967.2 hPa ESE 44.7 km/h 44.7 km/h 67 % 0 mm
14:50 -9.7 °C -12.9 °C 34967.2 hPa ESE 35.7 km/h 35.7 km/h 68 % 0 mm
14:55 -9.6 °C -12.7 °C 34967.2 hPa East 44.7 km/h 44.7 km/h 69 % 0 mm
15:00 -9.6 °C -12.6 °C 34967.2 hPa ESE 41.4 km/h 41.4 km/h 70 % 0 mm
15:05 -9.7 °C -12.8 °C 34967.2 hPa ESE 44.7 km/h 44.7 km/h 69 % 0 mm
15:10 -9.6 °C -12.7 °C 34967.2 hPa ESE 36.2 km/h 36.2 km/h 69 % 0 mm
15:15 -9.6 °C -12.6 °C 34967.2 hPa East 44.1 km/h 44.1 km/h 70 % 0 mm
15:20 -9.6 °C -12.6 °C 34967.2 hPa East 44.7 km/h 44.7 km/h 70 % 0 mm
15:25 -9.6 °C -12.4 °C 34957.1 hPa East 44.7 km/h 44.7 km/h 71 % 0 mm
15:30 -9.6 °C -12.6 °C 34957.1 hPa East 41.7 km/h 41.7 km/h 70 % 0 mm
15:35 -9.6 °C -12.4 °C 34957.1 hPa East 41.7 km/h 41.7 km/h 71 % 0 mm
15:40 -9.6 °C -12.6 °C 34957.1 hPa East 38.8 km/h 38.8 km/h 70 % 0 mm
15:50 -9.6 °C -12.4 °C 34957.1 hPa East 41.7 km/h 41.7 km/h 71 % 0 mm
15:51 -9.6 °C -12.4 °C 34957.1 hPa East 44.1 km/h 44.1 km/h 71 % 0 mm
15:56 -9.6 °C -12.6 °C 34957.1 hPa East 44.7 km/h 44.7 km/h 70 % 0 mm
16:01 -9.6 °C -12.7 °C 34957.1 hPa East 44.7 km/h 44.7 km/h 69 % 0 mm
16:06 -9.6 °C -12.6 °C 34957.1 hPa East 38.8 km/h 38.8 km/h 70 % 0 mm
16:11 -9.5 °C -12.6 °C 34957.1 hPa East 35.7 km/h 35.7 km/h 70 % 0 mm
16:16 -9.6 °C -12.7 °C 34957.1 hPa East 44.7 km/h 44.7 km/h 69 % 0 mm
16:21 -9.6 °C -12.6 °C 34957.1 hPa East 41.7 km/h 41.7 km/h 70 % 0 mm
16:26 -9.6 °C -12.6 °C 34957.1 hPa East 36.2 km/h 36.2 km/h 70 % 0 mm
16:31 -9.5 °C -12.3 °C 34957.1 hPa ESE 38.8 km/h 38.8 km/h 72 % 0 mm
16:36 -9.5 °C -12.3 °C 34967.2 hPa ESE 41.7 km/h 41.7 km/h 72 % 0 mm
16:41 -9.6 °C -12.4 °C 34957.1 hPa East 44.7 km/h 44.7 km/h 71 % 0 mm
16:46 -9.6 °C -12.4 °C 34957.1 hPa East 44.7 km/h 44.7 km/h 71 % 0 mm
16:51 -9.6 °C -12.4 °C 34957.1 hPa East 38.8 km/h 38.8 km/h 71 % 0 mm
16:56 -9.5 °C -12.3 °C 34957.1 hPa East 38.8 km/h 38.8 km/h 72 % 0 mm
17:01 -9.6 °C -12.4 °C 34957.1 hPa East 35.7 km/h 35.7 km/h 71 % 0 mm
17:06 -9.5 °C -12.4 °C 34957.1 hPa ESE 41.7 km/h 41.7 km/h 71 % 0 mm
17:11 -9.5 °C -12.3 °C 34957.1 hPa East 38.8 km/h 38.8 km/h 72 % 0 mm
17:16 -9.6 °C -12.6 °C 34957.1 hPa East 41.7 km/h 41.7 km/h 70 % 0 mm
17:21 -9.6 °C -12.6 °C 34957.1 hPa East 38.8 km/h 38.8 km/h 70 % 0 mm
17:26 -9.5 °C -12.4 °C 34967.2 hPa East 41.7 km/h 41.7 km/h 71 % 0 mm
17:31 -9.6 °C -12.7 °C 34967.2 hPa East 41.7 km/h 41.7 km/h 69 % 0 mm
17:36 -9.6 °C -12.7 °C 34967.2 hPa East 36.2 km/h 36.2 km/h 69 % 0 mm
17:41 -9.6 °C -12.6 °C 34967.2 hPa East 35.7 km/h 35.7 km/h 70 % 0 mm
17:46 -9.6 °C -12.6 °C 34967.2 hPa ENE 35.7 km/h 35.7 km/h 70 % 0 mm
17:51 -9.6 °C -12.5 °C 34957.1 hPa ENE 38.8 km/h 38.8 km/h 71 % 0 mm
17:56 -9.6 °C -12.6 °C 34957.1 hPa ENE 41.7 km/h 41.7 km/h 70 % 0 mm
18:01 -9.6 °C -12.5 °C 34957.1 hPa East 38.8 km/h 38.8 km/h 71 % 0 mm
18:06 -9.6 °C -12.6 °C 34967.2 hPa ENE 38.8 km/h 38.8 km/h 71 % 0 mm
18:11 -9.6 °C -12.3 °C 34967.2 hPa East 36.2 km/h 36.2 km/h 73 % 0 mm
18:16 -9.7 °C -12.4 °C 34967.2 hPa East 32.8 km/h 32.8 km/h 72 % 0 mm
18:21 -9.7 °C -12.5 °C 34967.2 hPa ENE 33.6 km/h 33.6 km/h 72 % 0 mm
18:23 -9.7 °C -12.5 °C 34967.2 hPa East 32.8 km/h 32.8 km/h 72 % 0 mm
18:28 -9.7 °C -12.5 °C 34967.2 hPa East 35.7 km/h 35.7 km/h 72 % 0 mm
18:33 -9.7 °C -12.5 °C 34967.2 hPa ENE 33.6 km/h 33.6 km/h 72 % 0 mm
18:38 -9.7 °C -12.4 °C 34967.2 hPa ENE 29.8 km/h 29.8 km/h 73 % 0 mm
18:43 -9.8 °C -12.6 °C 34967.2 hPa NE 23.8 km/h 23.8 km/h 72 % 0 mm
18:48 -9.9 °C -12.7 °C 34967.2 hPa NE 20.9 km/h 20.9 km/h 72 % 0 mm
18:53 -9.9 °C -12.7 °C 34980.8 hPa NE 17.9 km/h 17.9 km/h 72 % 0 mm
18:58 -10.1 °C -12.8 °C 34980.8 hPa NE 17.9 km/h 17.9 km/h 72 % 0 mm
19:03 -10.1 °C -12.8 °C 34980.8 hPa NE 12.9 km/h 12.9 km/h 72 % 0 mm
19:08 -10.2 °C -12.9 °C 34980.8 hPa NE 18.2 km/h 18.2 km/h 72 % 0 mm
19:13 -10.1 °C -12.9 °C 34980.8 hPa NE 15 km/h 15 km/h 72 % 0 mm
19:18 -10.2 °C -12.9 °C 34980.8 hPa NE 20.8 km/h 20.8 km/h 72 % 0 mm
19:23 -10.2 °C -13 °C 34980.8 hPa NE 15.6 km/h 15.6 km/h 71 % 0 mm
19:28 -10.2 °C -13.1 °C 34980.8 hPa NE 17.9 km/h 17.9 km/h 71 % 0 mm
19:33 -10.2 °C -13.1 °C 34980.8 hPa NNE 15 km/h 15 km/h 71 % 0 mm
19:38 -10.3 °C -13.3 °C 34980.8 hPa NNE 11.9 km/h 11.9 km/h 70 % 0 mm
19:43 -10.4 °C -13.4 °C 34980.8 hPa NNE 9 km/h 9 km/h 70 % 0 mm
19:48 -10.5 °C -13.4 °C 34980.8 hPa NE 15.6 km/h 15.6 km/h 71 % 0 mm
19:53 -10.6 °C -13.4 °C 34990.9 hPa NNE 12.9 km/h 12.9 km/h 71 % 0 mm
19:58 -10.7 °C -13.6 °C 34990.9 hPa North 12.9 km/h 12.9 km/h 71 % 0 mm
20:03 -10.9 °C -13.7 °C 34990.9 hPa NNE 12.9 km/h 12.9 km/h 71 % 0 mm
20:08 -10.9 °C -13.7 °C 34990.9 hPa North 17.9 km/h 17.9 km/h 72 % 0 mm
20:13 -10.9 °C -13.7 °C 34990.9 hPa North 15 km/h 15 km/h 72 % 0 mm
20:18 -11 °C -13.7 °C 34990.9 hPa North 12.9 km/h 12.9 km/h 72 % 0 mm
20:23 -11 °C -13.7 °C 34990.9 hPa North 20.8 km/h 20.8 km/h 72 % 0 mm
20:28 -11.1 °C -13.8 °C 34990.9 hPa North 18.2 km/h 18.2 km/h 72 % 0 mm
20:38 -11.2 °C -13.7 °C 34990.9 hPa North 18.2 km/h 18.2 km/h 73 % 0 mm
20:43 -11.2 °C -13.8 °C 34990.9 hPa North 20.9 km/h 20.9 km/h 73 % 0 mm
20:48 -11.2 °C -13.8 °C 34990.9 hPa North 18.2 km/h 18.2 km/h 73 % 0 mm
20:53 -11.3 °C -13.8 °C 34990.9 hPa North 20.9 km/h 20.9 km/h 73 % 0 mm
20:58 -11.3 °C -13.8 °C 34990.9 hPa NNE 15.6 km/h 15.6 km/h 74 % 0 mm
21:03 -11.3 °C -13.8 °C 34990.9 hPa NNE 20.9 km/h 20.9 km/h 74 % 0 mm
21:08 -11.3 °C -13.8 °C 34990.9 hPa North 18.2 km/h 18.2 km/h 74 % 0 mm
21:13 -11.3 °C -13.8 °C 34990.9 hPa North 23.8 km/h 23.8 km/h 74 % 0 mm
21:18 -11.3 °C -13.8 °C 35001.1 hPa North 20.9 km/h 20.9 km/h 74 % 0 mm
21:21 -11.4 °C -13.9 °C 35001.1 hPa North 18.2 km/h 18.2 km/h 74 % 0 mm
21:26 -11.4 °C -13.9 °C 35001.1 hPa North 23.8 km/h 23.8 km/h 74 % 0 mm
21:31 -11.4 °C -13.8 °C 35001.1 hPa North 23.8 km/h 23.8 km/h 75 % 0 mm
21:36 -11.4 °C -13.8 °C 35001.1 hPa North 26.9 km/h 26.9 km/h 75 % 0 mm
21:41 -11.4 °C -13.8 °C 35001.1 hPa North 23.8 km/h 23.8 km/h 75 % 0 mm
21:46 -11.4 °C -13.8 °C 35001.1 hPa NNE 29.8 km/h 29.8 km/h 75 % 0 mm
21:51 -11.4 °C -13.8 °C 35001.1 hPa NNE 23.8 km/h 23.8 km/h 75 % 0 mm
21:56 -11.4 °C -13.9 °C 34990.9 hPa North 26.9 km/h 26.9 km/h 74 % 0 mm
22:01 -11.4 °C -13.9 °C 35001.1 hPa North 29.8 km/h 29.8 km/h 74 % 0 mm
22:06 -11.4 °C -13.8 °C 34990.9 hPa North 23.8 km/h 23.8 km/h 75 % 0 mm
22:11 -11.5 °C -13.8 °C 35001.1 hPa North 26.9 km/h 26.9 km/h 75 % 0 mm
22:16 -11.5 °C -13.8 °C 34990.9 hPa North 29.8 km/h 29.8 km/h 75 % 0 mm
22:21 -11.5 °C -13.8 °C 35001.1 hPa North 26.9 km/h 26.9 km/h 75 % 0 mm
22:26 -11.5 °C -13.9 °C 35001.1 hPa NNE 29.8 km/h 29.8 km/h 74 % 0 mm
22:31 -11.5 °C -13.9 °C 35001.1 hPa North 29.8 km/h 29.8 km/h 74 % 0 mm
22:36 -11.5 °C -14 °C 35001.1 hPa North 26.9 km/h 26.9 km/h 74 % 0 mm
22:41 -11.6 °C -14 °C 35001.1 hPa North 23.8 km/h 23.8 km/h 74 % 0 mm
22:46 -11.6 °C -14.1 °C 35001.1 hPa North 29.8 km/h 29.8 km/h 74 % 0 mm
22:51 -11.6 °C -14 °C 35001.1 hPa North 26.9 km/h 26.9 km/h 74 % 0 mm
22:56 -11.6 °C -14 °C 35001.1 hPa North 29.8 km/h 29.8 km/h 74 % 0 mm
23:01 -11.6 °C -14 °C 35001.1 hPa North 29.8 km/h 29.8 km/h 74 % 0 mm
23:06 -11.6 °C -14 °C 35001.1 hPa NNE 26.9 km/h 26.9 km/h 74 % 0 mm
23:11 -11.5 °C -14 °C 35001.1 hPa North 26.9 km/h 26.9 km/h 74 % 0 mm
23:16 -11.5 °C -13.9 °C 35001.1 hPa North 23.8 km/h 23.8 km/h 74 % 0 mm
23:21 -11.4 °C -14.1 °C 35001.1 hPa North 26.9 km/h 26.9 km/h 73 % 0 mm
23:26 -11.4 °C -14.1 °C 35001.1 hPa NNW 23.8 km/h 23.8 km/h 73 % 0 mm
23:31 -11.4 °C -13.9 °C 35001.1 hPa North 20.9 km/h 20.9 km/h 74 % 0 mm
23:36 -11.4 °C -13.9 °C 35001.1 hPa North 20.9 km/h 20.9 km/h 74 % 0 mm
23:41 -11.4 °C -13.9 °C 35001.1 hPa North 20.9 km/h 20.9 km/h 74 % 0 mm
23:46 -11.4 °C -13.9 °C 35001.1 hPa North 23.8 km/h 23.8 km/h 74 % 0 mm
23:51 -11.4 °C -13.9 °C 35001.1 hPa North 20.9 km/h 20.9 km/h 74 % 0 mm
23:56 -11.5 °C -13.9 °C 35001.1 hPa North 17.9 km/h 17.9 km/h 74 % 0 mm
Puerto Banus, Marbella
Elogios de Weather Underground - 2.25 mb

Guión original por  Jim McMurry - jmcmurry@mwt.net Adaptado para la plantilla por  Wim van der Kuil - Leuven-Template.eu

Usted encontrará nuestra información del tiempo también en:

Weather Underground

Iberian Peninsula Weather Network